sensor_id;sensor_type;location;lat;lon;timestamp;temperature;humidity
3190;DHT22;1606;51.946;10.558;2023-12-20T00:00:40;10.30;99.90
3190;DHT22;1606;51.946;10.558;2023-12-20T00:03:09;10.40;99.90
3190;DHT22;1606;51.946;10.558;2023-12-20T00:05:37;10.40;99.90
3190;DHT22;1606;51.946;10.558;2023-12-20T00:08:07;10.40;99.90
3190;DHT22;1606;51.946;10.558;2023-12-20T00:10:35;10.50;99.90
3190;DHT22;1606;51.946;10.558;2023-12-20T00:13:04;10.50;99.90
3190;DHT22;1606;51.946;10.558;2023-12-20T00:15:31;10.40;99.90
3190;DHT22;1606;51.946;10.558;2023-12-20T00:17:59;10.40;99.90
3190;DHT22;1606;51.946;10.558;2023-12-20T00:20:29;10.50;99.90
3190;DHT22;1606;51.946;10.558;2023-12-20T00:22:57;10.50;99.90
3190;DHT22;1606;51.946;10.558;2023-12-20T00:25:25;10.30;99.90
3190;DHT22;1606;51.946;10.558;2023-12-20T00:27:53;10.30;99.90
3190;DHT22;1606;51.946;10.558;2023-12-20T00:30:21;10.30;99.90
3190;DHT22;1606;51.946;10.558;2023-12-20T00:32:49;10.30;99.90
3190;DHT22;1606;51.946;10.558;2023-12-20T00:35:17;10.10;99.90
3190;DHT22;1606;51.946;10.558;2023-12-20T00:37:46;10.20;99.90
3190;DHT22;1606;51.946;10.558;2023-12-20T00:40:14;10.20;99.90
3190;DHT22;1606;51.946;10.558;2023-12-20T00:42:42;10.30;99.90
3190;DHT22;1606;51.946;10.558;2023-12-20T00:45:10;10.20;99.90
3190;DHT22;1606;51.946;10.558;2023-12-20T00:47:37;10.30;99.90
3190;DHT22;1606;51.946;10.558;2023-12-20T00:50:06;10.40;99.90
3190;DHT22;1606;51.946;10.558;2023-12-20T00:52:34;10.30;99.90
3190;DHT22;1606;51.946;10.558;2023-12-20T00:55:05;10.00;99.90
3190;DHT22;1606;51.946;10.558;2023-12-20T00:57:32;9.70;99.90
3190;DHT22;1606;51.946;10.558;2023-12-20T01:00:01;9.80;99.90
3190;DHT22;1606;51.946;10.558;2023-12-20T01:02:29;10.00;99.90
3190;DHT22;1606;51.946;10.558;2023-12-20T01:04:56;10.10;99.90
3190;DHT22;1606;51.946;10.558;2023-12-20T01:07:24;10.20;99.90
3190;DHT22;1606;51.946;10.558;2023-12-20T01:09:52;10.20;99.90
3190;DHT22;1606;51.946;10.558;2023-12-20T01:12:21;10.00;99.90
3190;DHT22;1606;51.946;10.558;2023-12-20T01:14:49;10.10;99.90
3190;DHT22;1606;51.946;10.558;2023-12-20T01:17:17;10.00;99.90
3190;DHT22;1606;51.946;10.558;2023-12-20T01:19:45;10.10;99.90
3190;DHT22;1606;51.946;10.558;2023-12-20T01:22:13;10.30;99.90
3190;DHT22;1606;51.946;10.558;2023-12-20T01:24:41;10.20;99.90
3190;DHT22;1606;51.946;10.558;2023-12-20T01:27:09;10.20;99.90
3190;DHT22;1606;51.946;10.558;2023-12-20T01:29:38;10.20;99.90
3190;DHT22;1606;51.946;10.558;2023-12-20T01:32:06;10.10;99.90
3190;DHT22;1606;51.946;10.558;2023-12-20T01:34:34;10.20;99.90
3190;DHT22;1606;51.946;10.558;2023-12-20T01:37:02;10.10;99.90
3190;DHT22;1606;51.946;10.558;2023-12-20T01:39:31;10.00;99.90
3190;DHT22;1606;51.946;10.558;2023-12-20T01:41:58;9.90;99.90
3190;DHT22;1606;51.946;10.558;2023-12-20T01:44:26;10.10;99.90
3190;DHT22;1606;51.946;10.558;2023-12-20T01:46:56;10.00;99.90
3190;DHT22;1606;51.946;10.558;2023-12-20T01:49:24;10.20;99.90
3190;DHT22;1606;51.946;10.558;2023-12-20T01:51:53;10.10;99.90
3190;DHT22;1606;51.946;10.558;2023-12-20T01:54:21;9.80;99.90
3190;DHT22;1606;51.946;10.558;2023-12-20T01:56:49;10.00;99.90
3190;DHT22;1606;51.946;10.558;2023-12-20T01:59:18;10.00;99.90
3190;DHT22;1606;51.946;10.558;2023-12-20T02:01:47;9.90;99.90
3190;DHT22;1606;51.946;10.558;2023-12-20T02:04:17;9.80;99.90
3190;DHT22;1606;51.946;10.558;2023-12-20T02:06:46;9.90;99.90
3190;DHT22;1606;51.946;10.558;2023-12-20T02:09:15;9.90;99.90
3190;DHT22;1606;51.946;10.558;2023-12-20T02:11:43;9.80;99.90
3190;DHT22;1606;51.946;10.558;2023-12-20T02:14:11;9.90;99.90
3190;DHT22;1606;51.946;10.558;2023-12-20T02:16:39;9.60;99.90
3190;DHT22;1606;51.946;10.558;2023-12-20T02:19:12;9.80;99.90
3190;DHT22;1606;51.946;10.558;2023-12-20T02:21:42;9.80;99.90
3190;DHT22;1606;51.946;10.558;2023-12-20T02:24:10;9.50;99.90
3190;DHT22;1606;51.946;10.558;2023-12-20T02:26:38;9.40;99.90
3190;DHT22;1606;51.946;10.558;2023-12-20T02:29:08;8.90;99.90
3190;DHT22;1606;51.946;10.558;2023-12-20T02:31:36;8.90;99.90
3190;DHT22;1606;51.946;10.558;2023-12-20T02:34:04;8.90;99.90
3190;DHT22;1606;51.946;10.558;2023-12-20T02:36:32;9.20;99.90
3190;DHT22;1606;51.946;10.558;2023-12-20T02:39:01;9.00;99.90
3190;DHT22;1606;51.946;10.558;2023-12-20T02:41:30;8.90;99.90
3190;DHT22;1606;51.946;10.558;2023-12-20T02:43:58;9.00;99.90
3190;DHT22;1606;51.946;10.558;2023-12-20T02:46:26;8.90;99.90
3190;DHT22;1606;51.946;10.558;2023-12-20T02:48:54;9.00;99.90
3190;DHT22;1606;51.946;10.558;2023-12-20T02:51:22;8.90;99.90
3190;DHT22;1606;51.946;10.558;2023-12-20T02:53:49;9.10;99.90
3190;DHT22;1606;51.946;10.558;2023-12-20T02:56:19;9.10;99.90
3190;DHT22;1606;51.946;10.558;2023-12-20T02:58:46;9.10;99.90
3190;DHT22;1606;51.946;10.558;2023-12-20T03:01:14;9.00;99.90
3190;DHT22;1606;51.946;10.558;2023-12-20T03:03:42;9.00;99.90
3190;DHT22;1606;51.946;10.558;2023-12-20T03:06:10;9.10;99.90
3190;DHT22;1606;51.946;10.558;2023-12-20T03:08:38;9.10;99.90
3190;DHT22;1606;51.946;10.558;2023-12-20T03:11:07;8.90;99.90
3190;DHT22;1606;51.946;10.558;2023-12-20T03:13:37;8.80;99.90
3190;DHT22;1606;51.946;10.558;2023-12-20T03:16:08;9.00;99.90
3190;DHT22;1606;51.946;10.558;2023-12-20T03:18:36;9.10;99.90
3190;DHT22;1606;51.946;10.558;2023-12-20T03:21:04;9.10;99.90
3190;DHT22;1606;51.946;10.558;2023-12-20T03:23:32;9.10;99.90
3190;DHT22;1606;51.946;10.558;2023-12-20T03:26:00;9.10;99.90
3190;DHT22;1606;51.946;10.558;2023-12-20T03:28:29;9.00;99.90
3190;DHT22;1606;51.946;10.558;2023-12-20T03:30:59;9.10;99.90
3190;DHT22;1606;51.946;10.558;2023-12-20T03:33:26;9.20;99.90
3190;DHT22;1606;51.946;10.558;2023-12-20T03:35:54;9.10;99.90
3190;DHT22;1606;51.946;10.558;2023-12-20T03:38:22;9.30;99.90
3190;DHT22;1606;51.946;10.558;2023-12-20T03:40:51;9.30;99.90
3190;DHT22;1606;51.946;10.558;2023-12-20T03:43:19;9.20;99.90
3190;DHT22;1606;51.946;10.558;2023-12-20T03:45:47;9.10;99.90
3190;DHT22;1606;51.946;10.558;2023-12-20T03:48:16;9.00;99.90
3190;DHT22;1606;51.946;10.558;2023-12-20T03:50:44;9.10;99.90
3190;DHT22;1606;51.946;10.558;2023-12-20T03:53:12;9.10;99.90
3190;DHT22;1606;51.946;10.558;2023-12-20T03:55:40;9.00;99.90
3190;DHT22;1606;51.946;10.558;2023-12-20T03:58:07;8.90;99.90
3190;DHT22;1606;51.946;10.558;2023-12-20T04:00:35;8.90;99.90
3190;DHT22;1606;51.946;10.558;2023-12-20T04:03:03;8.70;99.90
3190;DHT22;1606;51.946;10.558;2023-12-20T04:05:33;8.80;99.90
3190;DHT22;1606;51.946;10.558;2023-12-20T04:08:01;8.70;99.90
3190;DHT22;1606;51.946;10.558;2023-12-20T04:10:30;8.60;99.90
3190;DHT22;1606;51.946;10.558;2023-12-20T04:12:58;8.80;99.90
3190;DHT22;1606;51.946;10.558;2023-12-20T04:15:25;8.60;99.90
3190;DHT22;1606;51.946;10.558;2023-12-20T04:17:53;8.70;99.90
3190;DHT22;1606;51.946;10.558;2023-12-20T04:20:21;9.10;99.90
3190;DHT22;1606;51.946;10.558;2023-12-20T04:22:50;8.70;99.90
3190;DHT22;1606;51.946;10.558;2023-12-20T04:25:18;8.80;99.90
3190;DHT22;1606;51.946;10.558;2023-12-20T04:27:46;8.70;99.90
3190;DHT22;1606;51.946;10.558;2023-12-20T04:30:15;8.90;99.90
3190;DHT22;1606;51.946;10.558;2023-12-20T04:32:43;9.00;99.90
3190;DHT22;1606;51.946;10.558;2023-12-20T04:35:11;9.10;99.90
3190;DHT22;1606;51.946;10.558;2023-12-20T04:37:39;9.10;99.90
3190;DHT22;1606;51.946;10.558;2023-12-20T04:40:08;9.00;99.90
3190;DHT22;1606;51.946;10.558;2023-12-20T04:42:36;9.00;99.90
3190;DHT22;1606;51.946;10.558;2023-12-20T04:45:05;8.90;99.90
3190;DHT22;1606;51.946;10.558;2023-12-20T04:47:33;9.00;99.90
3190;DHT22;1606;51.946;10.558;2023-12-20T04:50:01;8.90;99.90
3190;DHT22;1606;51.946;10.558;2023-12-20T04:52:29;9.00;99.90
3190;DHT22;1606;51.946;10.558;2023-12-20T04:54:57;9.00;99.90
3190;DHT22;1606;51.946;10.558;2023-12-20T04:57:27;8.90;99.90
3190;DHT22;1606;51.946;10.558;2023-12-20T04:59:55;9.00;99.90
3190;DHT22;1606;51.946;10.558;2023-12-20T05:02:23;9.00;99.90
3190;DHT22;1606;51.946;10.558;2023-12-20T05:04:50;9.10;99.90
3190;DHT22;1606;51.946;10.558;2023-12-20T05:07:21;8.90;99.90
3190;DHT22;1606;51.946;10.558;2023-12-20T05:09:49;8.80;99.90
3190;DHT22;1606;51.946;10.558;2023-12-20T05:12:17;8.90;99.90
3190;DHT22;1606;51.946;10.558;2023-12-20T05:14:46;8.70;99.90
3190;DHT22;1606;51.946;10.558;2023-12-20T05:17:14;8.90;99.90
3190;DHT22;1606;51.946;10.558;2023-12-20T05:19:42;8.90;99.90
3190;DHT22;1606;51.946;10.558;2023-12-20T05:22:10;8.80;99.90
3190;DHT22;1606;51.946;10.558;2023-12-20T05:24:38;8.80;99.90
3190;DHT22;1606;51.946;10.558;2023-12-20T05:27:06;8.70;99.90
3190;DHT22;1606;51.946;10.558;2023-12-20T05:29:34;8.70;99.90
3190;DHT22;1606;51.946;10.558;2023-12-20T05:32:04;9.00;99.90
3190;DHT22;1606;51.946;10.558;2023-12-20T05:34:32;8.80;99.90
3190;DHT22;1606;51.946;10.558;2023-12-20T05:37:00;8.50;99.90
3190;DHT22;1606;51.946;10.558;2023-12-20T05:39:28;8.60;99.90
3190;DHT22;1606;51.946;10.558;2023-12-20T05:41:57;8.60;99.90
3190;DHT22;1606;51.946;10.558;2023-12-20T05:44:25;8.70;99.90
3190;DHT22;1606;51.946;10.558;2023-12-20T05:46:53;8.90;99.90
3190;DHT22;1606;51.946;10.558;2023-12-20T05:49:22;8.60;99.90
3190;DHT22;1606;51.946;10.558;2023-12-20T05:51:50;8.70;99.90
3190;DHT22;1606;51.946;10.558;2023-12-20T05:54:18;8.60;99.90
3190;DHT22;1606;51.946;10.558;2023-12-20T05:56:46;8.60;99.90
3190;DHT22;1606;51.946;10.558;2023-12-20T05:59:14;8.70;99.90
3190;DHT22;1606;51.946;10.558;2023-12-20T06:01:42;8.90;99.90
3190;DHT22;1606;51.946;10.558;2023-12-20T06:04:10;8.70;99.90
3190;DHT22;1606;51.946;10.558;2023-12-20T06:06:42;8.60;99.90
3190;DHT22;1606;51.946;10.558;2023-12-20T06:09:11;8.70;99.90
3190;DHT22;1606;51.946;10.558;2023-12-20T06:11:38;8.60;99.90
3190;DHT22;1606;51.946;10.558;2023-12-20T06:14:06;8.70;99.90
3190;DHT22;1606;51.946;10.558;2023-12-20T06:16:34;8.80;99.90
3190;DHT22;1606;51.946;10.558;2023-12-20T06:19:02;8.80;99.90
3190;DHT22;1606;51.946;10.558;2023-12-20T06:21:30;8.70;99.90
3190;DHT22;1606;51.946;10.558;2023-12-20T06:24:00;8.70;99.90
3190;DHT22;1606;51.946;10.558;2023-12-20T06:26:28;8.90;99.90
3190;DHT22;1606;51.946;10.558;2023-12-20T06:28:55;9.00;99.90
3190;DHT22;1606;51.946;10.558;2023-12-20T06:31:23;9.10;99.90
3190;DHT22;1606;51.946;10.558;2023-12-20T06:33:51;9.00;99.90
3190;DHT22;1606;51.946;10.558;2023-12-20T06:36:24;9.10;99.90
3190;DHT22;1606;51.946;10.558;2023-12-20T06:38:52;8.80;99.90
3190;DHT22;1606;51.946;10.558;2023-12-20T06:41:21;8.90;99.90
3190;DHT22;1606;51.946;10.558;2023-12-20T06:43:51;8.80;99.90
3190;DHT22;1606;51.946;10.558;2023-12-20T06:46:19;8.50;99.90
3190;DHT22;1606;51.946;10.558;2023-12-20T06:48:47;8.60;99.90
3190;DHT22;1606;51.946;10.558;2023-12-20T06:51:16;8.70;99.90
3190;DHT22;1606;51.946;10.558;2023-12-20T06:53:46;8.80;99.90
3190;DHT22;1606;51.946;10.558;2023-12-20T06:56:14;8.80;99.90
3190;DHT22;1606;51.946;10.558;2023-12-20T06:58:47;8.90;99.90
3190;DHT22;1606;51.946;10.558;2023-12-20T07:01:15;8.80;99.90
3190;DHT22;1606;51.946;10.558;2023-12-20T07:03:44;8.80;99.90
3190;DHT22;1606;51.946;10.558;2023-12-20T07:06:12;8.70;99.90
3190;DHT22;1606;51.946;10.558;2023-12-20T07:08:43;8.40;99.90
3190;DHT22;1606;51.946;10.558;2023-12-20T07:11:11;8.70;99.90
3190;DHT22;1606;51.946;10.558;2023-12-20T07:13:39;8.60;99.90
3190;DHT22;1606;51.946;10.558;2023-12-20T07:16:08;8.60;99.90
3190;DHT22;1606;51.946;10.558;2023-12-20T07:18:36;8.70;99.90
3190;DHT22;1606;51.946;10.558;2023-12-20T07:21:04;8.70;99.90
3190;DHT22;1606;51.946;10.558;2023-12-20T07:23:32;8.60;99.90
3190;DHT22;1606;51.946;10.558;2023-12-20T07:25:59;8.70;99.90
3190;DHT22;1606;51.946;10.558;2023-12-20T07:28:27;8.60;99.90
3190;DHT22;1606;51.946;10.558;2023-12-20T07:30:55;8.60;99.90
3190;DHT22;1606;51.946;10.558;2023-12-20T07:33:24;8.60;99.90
3190;DHT22;1606;51.946;10.558;2023-12-20T07:35:52;8.40;99.90
3190;DHT22;1606;51.946;10.558;2023-12-20T07:38:20;8.40;99.90
3190;DHT22;1606;51.946;10.558;2023-12-20T07:40:48;8.50;99.90
3190;DHT22;1606;51.946;10.558;2023-12-20T07:43:16;8.60;99.90
3190;DHT22;1606;51.946;10.558;2023-12-20T07:45:44;8.60;99.90
3190;DHT22;1606;51.946;10.558;2023-12-20T07:48:12;8.40;99.90
3190;DHT22;1606;51.946;10.558;2023-12-20T07:50:42;8.30;99.90
3190;DHT22;1606;51.946;10.558;2023-12-20T07:53:10;8.40;99.90
3190;DHT22;1606;51.946;10.558;2023-12-20T07:55:37;8.50;99.90
3190;DHT22;1606;51.946;10.558;2023-12-20T07:58:06;8.50;99.90
3190;DHT22;1606;51.946;10.558;2023-12-20T08:00:34;8.40;99.90
3190;DHT22;1606;51.946;10.558;2023-12-20T08:03:02;8.20;99.90
3190;DHT22;1606;51.946;10.558;2023-12-20T08:05:30;8.30;99.90
3190;DHT22;1606;51.946;10.558;2023-12-20T08:07:59;8.20;99.90
3190;DHT22;1606;51.946;10.558;2023-12-20T08:10:27;8.30;99.90
3190;DHT22;1606;51.946;10.558;2023-12-20T08:12:56;8.30;99.90
3190;DHT22;1606;51.946;10.558;2023-12-20T08:15:24;8.40;99.90
3190;DHT22;1606;51.946;10.558;2023-12-20T08:17:52;8.40;99.90
3190;DHT22;1606;51.946;10.558;2023-12-20T08:20:20;8.40;99.90
3190;DHT22;1606;51.946;10.558;2023-12-20T08:23:00;8.30;99.90
3190;DHT22;1606;51.946;10.558;2023-12-20T08:25:28;8.40;99.90
3190;DHT22;1606;51.946;10.558;2023-12-20T08:27:56;8.50;99.90
3190;DHT22;1606;51.946;10.558;2023-12-20T08:30:24;8.60;99.90
3190;DHT22;1606;51.946;10.558;2023-12-20T08:32:52;8.60;99.90
3190;DHT22;1606;51.946;10.558;2023-12-20T08:35:19;8.50;99.90
3190;DHT22;1606;51.946;10.558;2023-12-20T08:37:47;8.60;99.90
3190;DHT22;1606;51.946;10.558;2023-12-20T08:40:16;8.70;99.90
3190;DHT22;1606;51.946;10.558;2023-12-20T08:42:44;8.40;99.90
3190;DHT22;1606;51.946;10.558;2023-12-20T08:45:12;8.50;99.90
3190;DHT22;1606;51.946;10.558;2023-12-20T08:47:40;8.60;99.90
3190;DHT22;1606;51.946;10.558;2023-12-20T08:50:11;8.70;99.90
3190;DHT22;1606;51.946;10.558;2023-12-20T08:52:39;8.60;99.90
3190;DHT22;1606;51.946;10.558;2023-12-20T08:55:08;8.30;99.90
3190;DHT22;1606;51.946;10.558;2023-12-20T08:57:37;8.50;99.90
3190;DHT22;1606;51.946;10.558;2023-12-20T09:00:06;8.60;99.90
3190;DHT22;1606;51.946;10.558;2023-12-20T09:02:34;8.70;99.90
3190;DHT22;1606;51.946;10.558;2023-12-20T09:05:04;8.70;99.90
3190;DHT22;1606;51.946;10.558;2023-12-20T09:07:32;8.50;99.90
3190;DHT22;1606;51.946;10.558;2023-12-20T09:10:00;8.70;99.90
3190;DHT22;1606;51.946;10.558;2023-12-20T09:12:29;8.80;99.90
3190;DHT22;1606;51.946;10.558;2023-12-20T09:14:58;8.90;99.90
3190;DHT22;1606;51.946;10.558;2023-12-20T09:17:29;9.00;99.90
3190;DHT22;1606;51.946;10.558;2023-12-20T09:19:59;9.00;99.90
3190;DHT22;1606;51.946;10.558;2023-12-20T09:22:27;9.00;99.90
3190;DHT22;1606;51.946;10.558;2023-12-20T09:24:55;9.00;99.90
3190;DHT22;1606;51.946;10.558;2023-12-20T09:27:23;9.00;99.90
3190;DHT22;1606;51.946;10.558;2023-12-20T09:29:51;9.10;99.90
3190;DHT22;1606;51.946;10.558;2023-12-20T09:32:21;8.90;99.90
3190;DHT22;1606;51.946;10.558;2023-12-20T09:34:49;9.00;99.90
3190;DHT22;1606;51.946;10.558;2023-12-20T09:37:17;8.80;99.90
3190;DHT22;1606;51.946;10.558;2023-12-20T09:39:45;8.80;99.90
3190;DHT22;1606;51.946;10.558;2023-12-20T09:42:17;8.60;99.90
3190;DHT22;1606;51.946;10.558;2023-12-20T09:44:49;8.70;99.90
3190;DHT22;1606;51.946;10.558;2023-12-20T09:47:21;8.80;99.90
3190;DHT22;1606;51.946;10.558;2023-12-20T09:49:50;9.00;99.90
3190;DHT22;1606;51.946;10.558;2023-12-20T09:52:20;9.00;99.90
3190;DHT22;1606;51.946;10.558;2023-12-20T09:54:49;9.20;99.90
3190;DHT22;1606;51.946;10.558;2023-12-20T09:57:20;9.20;99.90
3190;DHT22;1606;51.946;10.558;2023-12-20T09:59:48;9.20;99.90
3190;DHT22;1606;51.946;10.558;2023-12-20T10:02:17;8.80;99.90
3190;DHT22;1606;51.946;10.558;2023-12-20T10:04:49;8.90;99.90
3190;DHT22;1606;51.946;10.558;2023-12-20T10:07:17;8.70;99.90
3190;DHT22;1606;51.946;10.558;2023-12-20T10:09:46;8.80;99.90
3190;DHT22;1606;51.946;10.558;2023-12-20T10:12:15;8.80;99.90
3190;DHT22;1606;51.946;10.558;2023-12-20T10:14:43;8.80;99.90
3190;DHT22;1606;51.946;10.558;2023-12-20T10:17:10;8.70;99.90
3190;DHT22;1606;51.946;10.558;2023-12-20T10:19:38;8.70;99.90
3190;DHT22;1606;51.946;10.558;2023-12-20T10:22:08;8.80;99.90
3190;DHT22;1606;51.946;10.558;2023-12-20T10:24:36;8.90;99.90
3190;DHT22;1606;51.946;10.558;2023-12-20T10:27:05;8.70;99.90
3190;DHT22;1606;51.946;10.558;2023-12-20T10:29:33;8.90;99.90
3190;DHT22;1606;51.946;10.558;2023-12-20T10:32:22;8.80;99.90
3190;DHT22;1606;51.946;10.558;2023-12-20T10:34:51;8.80;99.90
3190;DHT22;1606;51.946;10.558;2023-12-20T10:37:21;8.80;99.90
3190;DHT22;1606;51.946;10.558;2023-12-20T10:39:50;9.00;99.90
3190;DHT22;1606;51.946;10.558;2023-12-20T10:42:20;8.90;99.90
3190;DHT22;1606;51.946;10.558;2023-12-20T10:44:49;8.80;99.90
3190;DHT22;1606;51.946;10.558;2023-12-20T10:47:17;9.00;99.90
3190;DHT22;1606;51.946;10.558;2023-12-20T10:49:46;9.00;99.90
3190;DHT22;1606;51.946;10.558;2023-12-20T10:52:17;9.10;99.90
3190;DHT22;1606;51.946;10.558;2023-12-20T10:54:46;9.20;99.90
3190;DHT22;1606;51.946;10.558;2023-12-20T10:57:17;9.10;99.90
3190;DHT22;1606;51.946;10.558;2023-12-20T10:59:45;9.20;99.90
3190;DHT22;1606;51.946;10.558;2023-12-20T11:02:17;9.20;99.90
3190;DHT22;1606;51.946;10.558;2023-12-20T11:04:51;9.00;99.90
3190;DHT22;1606;51.946;10.558;2023-12-20T11:07:25;9.00;99.90
3190;DHT22;1606;51.946;10.558;2023-12-20T11:10:01;9.20;99.90
3190;DHT22;1606;51.946;10.558;2023-12-20T11:12:37;9.20;99.90
3190;DHT22;1606;51.946;10.558;2023-12-20T11:15:08;9.40;99.90
3190;DHT22;1606;51.946;10.558;2023-12-20T11:17:38;9.60;99.90
3190;DHT22;1606;51.946;10.558;2023-12-20T11:20:08;9.40;99.90
3190;DHT22;1606;51.946;10.558;2023-12-20T11:22:40;9.30;99.90
3190;DHT22;1606;51.946;10.558;2023-12-20T11:25:20;9.30;99.90
3190;DHT22;1606;51.946;10.558;2023-12-20T11:28:06;9.10;99.90
3190;DHT22;1606;51.946;10.558;2023-12-20T11:30:41;9.10;99.90
3190;DHT22;1606;51.946;10.558;2023-12-20T11:33:10;9.10;99.90
3190;DHT22;1606;51.946;10.558;2023-12-20T11:35:39;8.90;99.90
3190;DHT22;1606;51.946;10.558;2023-12-20T11:38:09;8.90;99.90
3190;DHT22;1606;51.946;10.558;2023-12-20T11:40:41;9.00;99.90
3190;DHT22;1606;51.946;10.558;2023-12-20T11:43:09;9.10;99.90
3190;DHT22;1606;51.946;10.558;2023-12-20T11:45:49;9.20;99.90
3190;DHT22;1606;51.946;10.558;2023-12-20T11:48:18;9.20;99.90
3190;DHT22;1606;51.946;10.558;2023-12-20T11:50:47;9.00;99.90
3190;DHT22;1606;51.946;10.558;2023-12-20T11:53:15;9.00;99.90
3190;DHT22;1606;51.946;10.558;2023-12-20T11:55:49;9.10;99.90
3190;DHT22;1606;51.946;10.558;2023-12-20T11:58:16;9.10;99.90
3190;DHT22;1606;51.946;10.558;2023-12-20T12:00:44;9.20;99.90
3190;DHT22;1606;51.946;10.558;2023-12-20T12:03:15;9.00;99.90
3190;DHT22;1606;51.946;10.558;2023-12-20T12:05:43;8.80;99.90
3190;DHT22;1606;51.946;10.558;2023-12-20T12:08:11;9.00;99.90
3190;DHT22;1606;51.946;10.558;2023-12-20T12:10:40;9.10;99.90
3190;DHT22;1606;51.946;10.558;2023-12-20T12:13:09;9.00;99.90
3190;DHT22;1606;51.946;10.558;2023-12-20T12:15:38;8.90;99.90
3190;DHT22;1606;51.946;10.558;2023-12-20T12:18:07;8.80;99.90
3190;DHT22;1606;51.946;10.558;2023-12-20T12:20:35;8.50;99.90
3190;DHT22;1606;51.946;10.558;2023-12-20T12:23:05;8.70;99.90
3190;DHT22;1606;51.946;10.558;2023-12-20T12:25:35;8.80;99.90
3190;DHT22;1606;51.946;10.558;2023-12-20T12:28:10;8.90;99.90
3190;DHT22;1606;51.946;10.558;2023-12-20T12:30:38;9.00;99.90
3190;DHT22;1606;51.946;10.558;2023-12-20T12:33:19;9.00;99.90
3190;DHT22;1606;51.946;10.558;2023-12-20T12:35:48;8.90;99.90
3190;DHT22;1606;51.946;10.558;2023-12-20T12:38:16;8.90;99.90
3190;DHT22;1606;51.946;10.558;2023-12-20T12:40:44;8.90;99.90
3190;DHT22;1606;51.946;10.558;2023-12-20T12:43:13;9.00;99.90
3190;DHT22;1606;51.946;10.558;2023-12-20T12:45:41;9.10;99.90
3190;DHT22;1606;51.946;10.558;2023-12-20T12:48:08;9.20;99.90
3190;DHT22;1606;51.946;10.558;2023-12-20T12:50:36;9.10;99.90
3190;DHT22;1606;51.946;10.558;2023-12-20T12:53:04;8.90;99.90
3190;DHT22;1606;51.946;10.558;2023-12-20T12:55:34;8.60;99.90
3190;DHT22;1606;51.946;10.558;2023-12-20T12:58:02;8.70;99.90
3190;DHT22;1606;51.946;10.558;2023-12-20T13:00:31;8.70;99.90
3190;DHT22;1606;51.946;10.558;2023-12-20T13:03:00;9.00;99.90
3190;DHT22;1606;51.946;10.558;2023-12-20T13:05:27;9.10;99.90
3190;DHT22;1606;51.946;10.558;2023-12-20T13:07:56;9.20;99.90
3190;DHT22;1606;51.946;10.558;2023-12-20T13:10:25;9.20;99.90
3190;DHT22;1606;51.946;10.558;2023-12-20T13:12:53;9.10;99.90
3190;DHT22;1606;51.946;10.558;2023-12-20T13:15:21;8.90;99.90
3190;DHT22;1606;51.946;10.558;2023-12-20T13:17:50;8.90;99.90
3190;DHT22;1606;51.946;10.558;2023-12-20T13:20:18;8.90;99.90
3190;DHT22;1606;51.946;10.558;2023-12-20T13:22:47;8.80;99.90
3190;DHT22;1606;51.946;10.558;2023-12-20T13:25:14;8.70;99.90
3190;DHT22;1606;51.946;10.558;2023-12-20T13:27:42;8.30;99.90
3190;DHT22;1606;51.946;10.558;2023-12-20T13:30:12;7.90;99.90
3190;DHT22;1606;51.946;10.558;2023-12-20T13:32:40;7.20;99.90
3190;DHT22;1606;51.946;10.558;2023-12-20T13:35:10;7.20;99.90
3190;DHT22;1606;51.946;10.558;2023-12-20T13:37:39;7.30;99.90
3190;DHT22;1606;51.946;10.558;2023-12-20T13:40:08;7.50;99.90
3190;DHT22;1606;51.946;10.558;2023-12-20T13:42:36;7.30;99.90
3190;DHT22;1606;51.946;10.558;2023-12-20T13:45:05;6.80;99.90
3190;DHT22;1606;51.946;10.558;2023-12-20T13:47:33;6.90;99.90
3190;DHT22;1606;51.946;10.558;2023-12-20T13:50:01;6.90;99.90
3190;DHT22;1606;51.946;10.558;2023-12-20T13:52:31;6.90;99.90
3190;DHT22;1606;51.946;10.558;2023-12-20T13:55:03;7.10;99.90
3190;DHT22;1606;51.946;10.558;2023-12-20T13:57:32;7.20;99.90
3190;DHT22;1606;51.946;10.558;2023-12-20T14:00:18;7.00;99.90
3190;DHT22;1606;51.946;10.558;2023-12-20T14:02:45;7.00;99.90
3190;DHT22;1606;51.946;10.558;2023-12-20T14:05:14;7.30;99.90
3190;DHT22;1606;51.946;10.558;2023-12-20T14:07:46;7.20;99.90
3190;DHT22;1606;51.946;10.558;2023-12-20T14:10:15;7.30;99.90
3190;DHT22;1606;51.946;10.558;2023-12-20T14:12:43;7.20;99.90
3190;DHT22;1606;51.946;10.558;2023-12-20T14:15:11;7.30;99.90
3190;DHT22;1606;51.946;10.558;2023-12-20T14:17:40;7.20;99.90
3190;DHT22;1606;51.946;10.558;2023-12-20T14:20:10;7.30;99.90
3190;DHT22;1606;51.946;10.558;2023-12-20T14:22:40;7.20;99.90
3190;DHT22;1606;51.946;10.558;2023-12-20T14:25:12;7.00;99.90
3190;DHT22;1606;51.946;10.558;2023-12-20T14:27:40;7.20;99.90
3190;DHT22;1606;51.946;10.558;2023-12-20T14:30:12;7.30;99.90
3190;DHT22;1606;51.946;10.558;2023-12-20T14:32:41;7.50;99.90
3190;DHT22;1606;51.946;10.558;2023-12-20T14:35:09;7.50;99.90
3190;DHT22;1606;51.946;10.558;2023-12-20T14:37:37;7.70;99.90
3190;DHT22;1606;51.946;10.558;2023-12-20T14:40:08;7.80;99.90
3190;DHT22;1606;51.946;10.558;2023-12-20T14:42:43;7.80;99.90
3190;DHT22;1606;51.946;10.558;2023-12-20T14:45:11;7.90;99.90
3190;DHT22;1606;51.946;10.558;2023-12-20T14:47:40;8.10;99.90
3190;DHT22;1606;51.946;10.558;2023-12-20T14:50:08;8.30;99.90
3190;DHT22;1606;51.946;10.558;2023-12-20T14:52:37;8.30;99.90
3190;DHT22;1606;51.946;10.558;2023-12-20T14:55:06;8.40;99.90
3190;DHT22;1606;51.946;10.558;2023-12-20T14:57:34;8.20;99.90
3190;DHT22;1606;51.946;10.558;2023-12-20T15:00:04;8.10;99.90
3190;DHT22;1606;51.946;10.558;2023-12-20T15:02:32;8.30;99.90
3190;DHT22;1606;51.946;10.558;2023-12-20T15:04:59;8.30;99.90
3190;DHT22;1606;51.946;10.558;2023-12-20T15:07:27;8.60;99.90
3190;DHT22;1606;51.946;10.558;2023-12-20T15:09:55;8.60;99.90
3190;DHT22;1606;51.946;10.558;2023-12-20T15:12:23;8.70;99.90
3190;DHT22;1606;51.946;10.558;2023-12-20T15:14:51;8.70;99.90
3190;DHT22;1606;51.946;10.558;2023-12-20T15:17:21;8.60;99.90
3190;DHT22;1606;51.946;10.558;2023-12-20T15:19:48;8.50;99.90
3190;DHT22;1606;51.946;10.558;2023-12-20T15:22:16;8.40;99.90
3190;DHT22;1606;51.946;10.558;2023-12-20T15:24:44;8.50;99.90
3190;DHT22;1606;51.946;10.558;2023-12-20T15:27:13;8.60;99.90
3190;DHT22;1606;51.946;10.558;2023-12-20T15:29:42;8.60;99.90
3190;DHT22;1606;51.946;10.558;2023-12-20T15:32:10;8.60;99.90
3190;DHT22;1606;51.946;10.558;2023-12-20T15:34:39;8.60;99.90
3190;DHT22;1606;51.946;10.558;2023-12-20T15:37:07;8.50;99.90
3190;DHT22;1606;51.946;10.558;2023-12-20T15:39:35;8.40;99.90
3190;DHT22;1606;51.946;10.558;2023-12-20T15:42:03;8.50;99.90
3190;DHT22;1606;51.946;10.558;2023-12-20T15:44:31;8.40;99.90
3190;DHT22;1606;51.946;10.558;2023-12-20T15:46:59;8.20;99.90
3190;DHT22;1606;51.946;10.558;2023-12-20T15:49:27;8.20;99.90
3190;DHT22;1606;51.946;10.558;2023-12-20T15:51:57;8.30;99.90
3190;DHT22;1606;51.946;10.558;2023-12-20T15:54:25;8.40;99.90
3190;DHT22;1606;51.946;10.558;2023-12-20T15:56:52;8.40;99.90
3190;DHT22;1606;51.946;10.558;2023-12-20T15:59:20;8.20;99.90
3190;DHT22;1606;51.946;10.558;2023-12-20T16:01:48;8.30;99.90
3190;DHT22;1606;51.946;10.558;2023-12-20T16:04:20;8.40;99.90
3190;DHT22;1606;51.946;10.558;2023-12-20T16:06:48;8.60;99.90
3190;DHT22;1606;51.946;10.558;2023-12-20T16:09:18;8.60;99.90